Terminal Aerodrome Forecast
Issued by NWS Atlanta, GA

Home | Current Version | Previous Version | Text Only | Print | Product List | Glossary On
Versions: 1 2 3 4 5 6 7 8 9 10 11 12 13 14 15 16 17 18 19 20 21 22 23 24 25 26
000
FTUS42 KFFC 232300
TAFCSG
TAF
KCSG 232331Z 2400/2424 24006KT P6SM SCT045
     FM240700 VRB03KT 4SM BR FEW025
     FM241400 26007KT P6SM BKN025
     FM241600 28008G16KT P6SM BKN035 PROB30 2417/2422 5SM TSRA BR
      BKN025CB
     FM242200 30007KT P6SM BKN035=

USA.gov is the U.S. government's official web portal to all federal, state and local government web resources and services.